sensor_id;sensor_type;location;lat;lon;timestamp;temperature;humidity
59881;DHT22;45751;51.380;10.326;2024-02-23T00:00:53;8.20;91.00
59881;DHT22;45751;51.380;10.326;2024-02-23T00:03:19;8.20;91.00
59881;DHT22;45751;51.380;10.326;2024-02-23T00:05:45;8.10;91.10
59881;DHT22;45751;51.380;10.326;2024-02-23T00:08:11;8.20;90.90
59881;DHT22;45751;51.380;10.326;2024-02-23T00:10:37;8.20;91.00
59881;DHT22;45751;51.380;10.326;2024-02-23T00:13:02;8.20;91.20
59881;DHT22;45751;51.380;10.326;2024-02-23T00:15:28;8.10;91.50
59881;DHT22;45751;51.380;10.326;2024-02-23T00:17:54;8.10;91.20
59881;DHT22;45751;51.380;10.326;2024-02-23T00:20:20;8.10;91.70
59881;DHT22;45751;51.380;10.326;2024-02-23T00:22:46;8.10;91.00
59881;DHT22;45751;51.380;10.326;2024-02-23T00:25:11;8.10;91.70
59881;DHT22;45751;51.380;10.326;2024-02-23T00:27:37;8.10;91.30
59881;DHT22;45751;51.380;10.326;2024-02-23T00:30:05;8.00;90.80
59881;DHT22;45751;51.380;10.326;2024-02-23T00:32:31;8.00;90.60
59881;DHT22;45751;51.380;10.326;2024-02-23T00:34:58;8.00;89.90
59881;DHT22;45751;51.380;10.326;2024-02-23T00:37:24;8.00;89.80
59881;DHT22;45751;51.380;10.326;2024-02-23T00:39:49;7.90;89.40
59881;DHT22;45751;51.380;10.326;2024-02-23T00:42:15;7.90;89.30
59881;DHT22;45751;51.380;10.326;2024-02-23T00:44:41;7.90;90.00
59881;DHT22;45751;51.380;10.326;2024-02-23T00:47:06;7.90;90.40
59881;DHT22;45751;51.380;10.326;2024-02-23T00:49:32;7.80;90.90
59881;DHT22;45751;51.380;10.326;2024-02-23T00:51:58;7.90;91.30
59881;DHT22;45751;51.380;10.326;2024-02-23T00:54:24;7.90;91.50
59881;DHT22;45751;51.380;10.326;2024-02-23T00:56:49;7.90;91.40
59881;DHT22;45751;51.380;10.326;2024-02-23T00:59:15;7.90;91.10
59881;DHT22;45751;51.380;10.326;2024-02-23T01:01:41;7.90;90.60
59881;DHT22;45751;51.380;10.326;2024-02-23T01:04:07;7.80;90.30
59881;DHT22;45751;51.380;10.326;2024-02-23T01:06:32;7.80;90.60
59881;DHT22;45751;51.380;10.326;2024-02-23T01:08:58;7.80;89.10
59881;DHT22;45751;51.380;10.326;2024-02-23T01:11:24;7.80;89.20
59881;DHT22;45751;51.380;10.326;2024-02-23T01:13:49;7.80;86.50
59881;DHT22;45751;51.380;10.326;2024-02-23T01:16:16;7.80;85.20
59881;DHT22;45751;51.380;10.326;2024-02-23T01:18:41;7.80;85.00
59881;DHT22;45751;51.380;10.326;2024-02-23T01:21:08;7.70;84.80
59881;DHT22;45751;51.380;10.326;2024-02-23T01:23:33;7.70;84.90
59881;DHT22;45751;51.380;10.326;2024-02-23T01:25:59;7.70;84.40
59881;DHT22;45751;51.380;10.326;2024-02-23T01:28:25;7.70;83.40
59881;DHT22;45751;51.380;10.326;2024-02-23T01:30:51;7.70;84.20
59881;DHT22;45751;51.380;10.326;2024-02-23T01:33:17;7.60;85.30
59881;DHT22;45751;51.380;10.326;2024-02-23T01:35:43;7.60;86.70
59881;DHT22;45751;51.380;10.326;2024-02-23T01:38:08;7.60;86.80
59881;DHT22;45751;51.380;10.326;2024-02-23T01:40:36;7.60;88.50
59881;DHT22;45751;51.380;10.326;2024-02-23T01:43:05;7.60;87.90
59881;DHT22;45751;51.380;10.326;2024-02-23T01:45:31;7.50;88.30
59881;DHT22;45751;51.380;10.326;2024-02-23T01:47:58;7.50;88.70
59881;DHT22;45751;51.380;10.326;2024-02-23T01:50:25;7.40;89.20
59881;DHT22;45751;51.380;10.326;2024-02-23T01:52:51;7.30;88.50
59881;DHT22;45751;51.380;10.326;2024-02-23T01:55:20;7.30;89.20
59881;DHT22;45751;51.380;10.326;2024-02-23T01:57:47;7.30;89.20
59881;DHT22;45751;51.380;10.326;2024-02-23T02:00:17;7.30;89.50
59881;DHT22;45751;51.380;10.326;2024-02-23T02:02:49;7.30;90.10
59881;DHT22;45751;51.380;10.326;2024-02-23T02:05:16;7.20;90.30
59881;DHT22;45751;51.380;10.326;2024-02-23T02:07:42;7.20;90.60
59881;DHT22;45751;51.380;10.326;2024-02-23T02:10:09;7.20;90.70
59881;DHT22;45751;51.380;10.326;2024-02-23T02:12:35;7.20;87.20
59881;DHT22;45751;51.380;10.326;2024-02-23T02:15:01;7.20;86.30
59881;DHT22;45751;51.380;10.326;2024-02-23T02:17:28;7.20;85.70
59881;DHT22;45751;51.380;10.326;2024-02-23T02:19:54;7.10;83.80
59881;DHT22;45751;51.380;10.326;2024-02-23T02:22:20;7.10;82.50
59881;DHT22;45751;51.380;10.326;2024-02-23T02:24:46;7.10;79.80
59881;DHT22;45751;51.380;10.326;2024-02-23T02:27:14;7.00;77.90
59881;DHT22;45751;51.380;10.326;2024-02-23T02:29:39;7.00;78.10
59881;DHT22;45751;51.380;10.326;2024-02-23T02:32:05;6.90;78.80
59881;DHT22;45751;51.380;10.326;2024-02-23T02:34:31;6.90;79.30
59881;DHT22;45751;51.380;10.326;2024-02-23T02:36:57;6.80;79.60
59881;DHT22;45751;51.380;10.326;2024-02-23T02:39:23;6.80;79.50
59881;DHT22;45751;51.380;10.326;2024-02-23T02:41:49;6.70;80.00
59881;DHT22;45751;51.380;10.326;2024-02-23T02:44:15;6.70;80.00
59881;DHT22;45751;51.380;10.326;2024-02-23T02:46:41;6.60;79.40
59881;DHT22;45751;51.380;10.326;2024-02-23T02:49:07;6.60;78.80
59881;DHT22;45751;51.380;10.326;2024-02-23T02:51:33;6.60;79.00
59881;DHT22;45751;51.380;10.326;2024-02-23T02:53:59;6.60;80.10
59881;DHT22;45751;51.380;10.326;2024-02-23T02:56:25;6.60;80.30
59881;DHT22;45751;51.380;10.326;2024-02-23T02:58:50;6.60;80.40
59881;DHT22;45751;51.380;10.326;2024-02-23T03:01:16;6.50;81.00
59881;DHT22;45751;51.380;10.326;2024-02-23T03:03:42;6.50;82.30
59881;DHT22;45751;51.380;10.326;2024-02-23T03:06:08;6.40;83.30
59881;DHT22;45751;51.380;10.326;2024-02-23T03:08:33;6.40;84.00
59881;DHT22;45751;51.380;10.326;2024-02-23T03:10:59;6.40;84.00
59881;DHT22;45751;51.380;10.326;2024-02-23T03:13:25;6.40;84.20
59881;DHT22;45751;51.380;10.326;2024-02-23T03:15:51;6.50;84.80
59881;DHT22;45751;51.380;10.326;2024-02-23T03:18:16;6.40;85.30
59881;DHT22;45751;51.380;10.326;2024-02-23T03:20:42;6.40;84.90
59881;DHT22;45751;51.380;10.326;2024-02-23T03:23:08;6.40;84.50
59881;DHT22;45751;51.380;10.326;2024-02-23T03:25:34;6.40;84.20
59881;DHT22;45751;51.380;10.326;2024-02-23T03:28:00;6.40;84.40
59881;DHT22;45751;51.380;10.326;2024-02-23T03:30:26;6.40;84.70
59881;DHT22;45751;51.380;10.326;2024-02-23T03:32:51;6.30;85.20
59881;DHT22;45751;51.380;10.326;2024-02-23T03:35:17;6.30;85.40
59881;DHT22;45751;51.380;10.326;2024-02-23T03:37:43;6.20;85.20
59881;DHT22;45751;51.380;10.326;2024-02-23T03:40:09;6.30;85.60
59881;DHT22;45751;51.380;10.326;2024-02-23T03:42:38;6.30;86.00
59881;DHT22;45751;51.380;10.326;2024-02-23T03:45:04;6.30;86.50
59881;DHT22;45751;51.380;10.326;2024-02-23T03:47:31;6.30;86.10
59881;DHT22;45751;51.380;10.326;2024-02-23T03:49:56;6.30;86.50
59881;DHT22;45751;51.380;10.326;2024-02-23T03:52:22;6.30;86.40
59881;DHT22;45751;51.380;10.326;2024-02-23T03:54:48;6.20;86.00
59881;DHT22;45751;51.380;10.326;2024-02-23T03:57:14;6.20;86.10
59881;DHT22;45751;51.380;10.326;2024-02-23T03:59:51;6.20;86.70
59881;DHT22;45751;51.380;10.326;2024-02-23T04:02:18;6.20;87.20
59881;DHT22;45751;51.380;10.326;2024-02-23T04:04:43;6.10;86.10
59881;DHT22;45751;51.380;10.326;2024-02-23T04:07:09;6.10;85.30
59881;DHT22;45751;51.380;10.326;2024-02-23T04:09:35;6.10;86.10
59881;DHT22;45751;51.380;10.326;2024-02-23T04:12:00;5.90;87.40
59881;DHT22;45751;51.380;10.326;2024-02-23T04:14:26;6.00;88.40
59881;DHT22;45751;51.380;10.326;2024-02-23T04:16:52;6.00;88.20
59881;DHT22;45751;51.380;10.326;2024-02-23T04:19:18;5.90;88.70
59881;DHT22;45751;51.380;10.326;2024-02-23T04:21:44;5.90;88.80
59881;DHT22;45751;51.380;10.326;2024-02-23T04:24:09;5.90;89.10
59881;DHT22;45751;51.380;10.326;2024-02-23T04:26:35;5.80;89.30
59881;DHT22;45751;51.380;10.326;2024-02-23T04:29:01;5.80;90.00
59881;DHT22;45751;51.380;10.326;2024-02-23T04:31:27;5.70;90.20
59881;DHT22;45751;51.380;10.326;2024-02-23T04:33:52;5.70;90.00
59881;DHT22;45751;51.380;10.326;2024-02-23T04:36:21;5.70;90.00
59881;DHT22;45751;51.380;10.326;2024-02-23T04:38:48;5.60;90.00
59881;DHT22;45751;51.380;10.326;2024-02-23T04:41:13;5.60;90.10
59881;DHT22;45751;51.380;10.326;2024-02-23T04:43:39;5.60;90.30
59881;DHT22;45751;51.380;10.326;2024-02-23T04:46:05;5.60;90.30
59881;DHT22;45751;51.380;10.326;2024-02-23T04:48:31;5.60;90.40
59881;DHT22;45751;51.380;10.326;2024-02-23T04:50:57;5.60;90.60
59881;DHT22;45751;51.380;10.326;2024-02-23T04:53:23;5.60;91.10
59881;DHT22;45751;51.380;10.326;2024-02-23T04:55:49;5.60;91.20
59881;DHT22;45751;51.380;10.326;2024-02-23T04:58:16;5.60;91.20
59881;DHT22;45751;51.380;10.326;2024-02-23T05:00:42;5.50;90.90
59881;DHT22;45751;51.380;10.326;2024-02-23T05:03:08;5.50;90.80
59881;DHT22;45751;51.380;10.326;2024-02-23T05:05:35;5.50;90.80
59881;DHT22;45751;51.380;10.326;2024-02-23T05:08:01;5.50;90.90
59881;DHT22;45751;51.380;10.326;2024-02-23T05:10:27;5.50;90.90
59881;DHT22;45751;51.380;10.326;2024-02-23T05:12:53;5.40;90.00
59881;DHT22;45751;51.380;10.326;2024-02-23T05:15:19;5.40;90.30
59881;DHT22;45751;51.380;10.326;2024-02-23T05:17:45;5.40;90.50
59881;DHT22;45751;51.380;10.326;2024-02-23T05:20:11;5.40;90.50
59881;DHT22;45751;51.380;10.326;2024-02-23T05:22:38;5.30;90.30
59881;DHT22;45751;51.380;10.326;2024-02-23T05:25:04;5.40;90.50
59881;DHT22;45751;51.380;10.326;2024-02-23T05:27:31;5.30;91.00
59881;DHT22;45751;51.380;10.326;2024-02-23T05:29:57;5.30;90.60
59881;DHT22;45751;51.380;10.326;2024-02-23T05:32:22;5.30;90.70
59881;DHT22;45751;51.380;10.326;2024-02-23T05:34:48;5.30;91.10
59881;DHT22;45751;51.380;10.326;2024-02-23T05:37:17;5.30;91.30
59881;DHT22;45751;51.380;10.326;2024-02-23T05:39:43;5.30;92.40
59881;DHT22;45751;51.380;10.326;2024-02-23T05:42:10;5.30;92.00
59881;DHT22;45751;51.380;10.326;2024-02-23T05:44:36;5.30;92.20
59881;DHT22;45751;51.380;10.326;2024-02-23T05:47:02;5.30;92.50
59881;DHT22;45751;51.380;10.326;2024-02-23T05:49:28;5.20;92.70
59881;DHT22;45751;51.380;10.326;2024-02-23T05:51:54;5.20;92.80
59881;DHT22;45751;51.380;10.326;2024-02-23T05:54:20;5.20;92.60
59881;DHT22;45751;51.380;10.326;2024-02-23T05:56:46;5.10;92.40
59881;DHT22;45751;51.380;10.326;2024-02-23T05:59:12;5.20;92.60
59881;DHT22;45751;51.380;10.326;2024-02-23T06:01:37;5.10;92.60
59881;DHT22;45751;51.380;10.326;2024-02-23T06:04:03;5.10;92.60
59881;DHT22;45751;51.380;10.326;2024-02-23T06:06:29;5.10;92.40
59881;DHT22;45751;51.380;10.326;2024-02-23T06:08:55;5.10;92.40
59881;DHT22;45751;51.380;10.326;2024-02-23T06:11:21;5.10;92.10
59881;DHT22;45751;51.380;10.326;2024-02-23T06:13:47;5.10;92.00
59881;DHT22;45751;51.380;10.326;2024-02-23T06:16:13;5.00;92.00
59881;DHT22;45751;51.380;10.326;2024-02-23T06:18:39;5.10;92.00
59881;DHT22;45751;51.380;10.326;2024-02-23T06:21:15;5.20;92.10
59881;DHT22;45751;51.380;10.326;2024-02-23T06:23:42;5.00;92.20
59881;DHT22;45751;51.380;10.326;2024-02-23T06:26:07;5.10;92.40
59881;DHT22;45751;51.380;10.326;2024-02-23T06:28:33;5.00;92.80
59881;DHT22;45751;51.380;10.326;2024-02-23T06:30:59;5.00;93.20
59881;DHT22;45751;51.380;10.326;2024-02-23T06:33:25;5.00;92.70
59881;DHT22;45751;51.380;10.326;2024-02-23T06:35:51;5.00;92.70
59881;DHT22;45751;51.380;10.326;2024-02-23T06:38:18;5.00;92.80
59881;DHT22;45751;51.380;10.326;2024-02-23T06:40:43;4.90;92.50
59881;DHT22;45751;51.380;10.326;2024-02-23T06:43:09;4.90;92.40
59881;DHT22;45751;51.380;10.326;2024-02-23T06:45:35;4.90;92.30
59881;DHT22;45751;51.380;10.326;2024-02-23T06:48:01;4.90;92.30
59881;DHT22;45751;51.380;10.326;2024-02-23T06:50:26;5.00;92.40
59881;DHT22;45751;51.380;10.326;2024-02-23T06:52:52;4.90;92.90
59881;DHT22;45751;51.380;10.326;2024-02-23T06:55:18;4.90;93.50
59881;DHT22;45751;51.380;10.326;2024-02-23T06:57:44;4.90;94.30
59881;DHT22;45751;51.380;10.326;2024-02-23T07:00:10;4.90;94.90
59881;DHT22;45751;51.380;10.326;2024-02-23T07:02:36;4.80;94.90
59881;DHT22;45751;51.380;10.326;2024-02-23T07:05:03;4.80;95.20
59881;DHT22;45751;51.380;10.326;2024-02-23T07:07:32;4.80;95.10
59881;DHT22;45751;51.380;10.326;2024-02-23T07:09:59;4.80;95.00
59881;DHT22;45751;51.380;10.326;2024-02-23T07:12:25;4.80;94.80
59881;DHT22;45751;51.380;10.326;2024-02-23T07:14:55;4.80;94.70
59881;DHT22;45751;51.380;10.326;2024-02-23T07:17:21;4.80;94.60
59881;DHT22;45751;51.380;10.326;2024-02-23T07:19:47;4.80;94.70
59881;DHT22;45751;51.380;10.326;2024-02-23T07:22:13;4.80;94.00
59881;DHT22;45751;51.380;10.326;2024-02-23T07:24:45;4.80;93.60
59881;DHT22;45751;51.380;10.326;2024-02-23T07:27:10;4.80;93.70
59881;DHT22;45751;51.380;10.326;2024-02-23T07:29:36;4.80;93.80
59881;DHT22;45751;51.380;10.326;2024-02-23T07:32:02;4.70;93.60
59881;DHT22;45751;51.380;10.326;2024-02-23T07:34:28;4.80;93.30
59881;DHT22;45751;51.380;10.326;2024-02-23T07:36:54;4.80;93.10
59881;DHT22;45751;51.380;10.326;2024-02-23T07:39:20;4.90;93.00
59881;DHT22;45751;51.380;10.326;2024-02-23T07:41:47;4.90;92.90
59881;DHT22;45751;51.380;10.326;2024-02-23T07:44:13;4.90;92.80
59881;DHT22;45751;51.380;10.326;2024-02-23T07:46:39;4.90;92.50
59881;DHT22;45751;51.380;10.326;2024-02-23T07:49:05;4.90;92.10
59881;DHT22;45751;51.380;10.326;2024-02-23T07:51:35;5.00;92.00
59881;DHT22;45751;51.380;10.326;2024-02-23T07:54:01;5.00;91.70
59881;DHT22;45751;51.380;10.326;2024-02-23T07:56:27;4.90;91.60
59881;DHT22;45751;51.380;10.326;2024-02-23T07:58:54;4.90;91.60
59881;DHT22;45751;51.380;10.326;2024-02-23T08:01:21;4.90;91.60
59881;DHT22;45751;51.380;10.326;2024-02-23T08:03:47;5.00;91.70
59881;DHT22;45751;51.380;10.326;2024-02-23T08:06:13;4.90;91.70
59881;DHT22;45751;51.380;10.326;2024-02-23T08:08:38;4.90;91.80
59881;DHT22;45751;51.380;10.326;2024-02-23T08:11:04;4.90;92.00
59881;DHT22;45751;51.380;10.326;2024-02-23T08:13:30;4.90;91.90
59881;DHT22;45751;51.380;10.326;2024-02-23T08:15:57;4.90;92.00
59881;DHT22;45751;51.380;10.326;2024-02-23T08:18:23;4.90;92.10
59881;DHT22;45751;51.380;10.326;2024-02-23T08:20:49;4.90;92.20
59881;DHT22;45751;51.380;10.326;2024-02-23T08:23:15;4.90;92.10
59881;DHT22;45751;51.380;10.326;2024-02-23T08:25:41;4.90;92.10
59881;DHT22;45751;51.380;10.326;2024-02-23T08:28:07;4.90;92.20
59881;DHT22;45751;51.380;10.326;2024-02-23T08:30:33;4.80;92.20
59881;DHT22;45751;51.380;10.326;2024-02-23T08:32:59;4.90;92.20
59881;DHT22;45751;51.380;10.326;2024-02-23T08:35:25;4.90;92.10
59881;DHT22;45751;51.380;10.326;2024-02-23T08:37:51;4.80;91.70
59881;DHT22;45751;51.380;10.326;2024-02-23T08:40:17;4.90;91.80
59881;DHT22;45751;51.380;10.326;2024-02-23T08:42:43;4.90;91.10
59881;DHT22;45751;51.380;10.326;2024-02-23T08:45:09;4.90;91.10
59881;DHT22;45751;51.380;10.326;2024-02-23T08:47:39;4.90;90.70
59881;DHT22;45751;51.380;10.326;2024-02-23T08:50:06;4.80;90.80
59881;DHT22;45751;51.380;10.326;2024-02-23T08:52:32;4.90;91.00
59881;DHT22;45751;51.380;10.326;2024-02-23T08:54:57;4.70;90.90
59881;DHT22;45751;51.380;10.326;2024-02-23T08:57:23;5.00;90.90
59881;DHT22;45751;51.380;10.326;2024-02-23T08:59:49;4.90;91.10
59881;DHT22;45751;51.380;10.326;2024-02-23T09:02:15;4.90;90.80
59881;DHT22;45751;51.380;10.326;2024-02-23T09:04:41;4.90;90.90
59881;DHT22;45751;51.380;10.326;2024-02-23T09:07:07;4.90;90.70
59881;DHT22;45751;51.380;10.326;2024-02-23T09:09:32;5.00;90.70
59881;DHT22;45751;51.380;10.326;2024-02-23T09:11:58;5.00;91.00
59881;DHT22;45751;51.380;10.326;2024-02-23T09:14:24;5.00;90.80
59881;DHT22;45751;51.380;10.326;2024-02-23T09:16:51;5.10;91.00
59881;DHT22;45751;51.380;10.326;2024-02-23T09:19:17;5.10;91.10
59881;DHT22;45751;51.380;10.326;2024-02-23T09:21:44;5.10;91.20
59881;DHT22;45751;51.380;10.326;2024-02-23T09:24:10;5.10;91.00
59881;DHT22;45751;51.380;10.326;2024-02-23T09:26:35;5.20;90.70
59881;DHT22;45751;51.380;10.326;2024-02-23T09:29:01;5.20;90.70
59881;DHT22;45751;51.380;10.326;2024-02-23T09:31:27;5.20;90.50
59881;DHT22;45751;51.380;10.326;2024-02-23T09:33:54;5.20;90.30
59881;DHT22;45751;51.380;10.326;2024-02-23T09:36:20;5.20;90.40
59881;DHT22;45751;51.380;10.326;2024-02-23T09:38:47;5.20;90.40
59881;DHT22;45751;51.380;10.326;2024-02-23T09:41:21;5.20;90.40
59881;DHT22;45751;51.380;10.326;2024-02-23T09:43:48;5.20;90.00
59881;DHT22;45751;51.380;10.326;2024-02-23T09:46:16;5.30;90.30
59881;DHT22;45751;51.380;10.326;2024-02-23T09:48:45;5.30;90.00
59881;DHT22;45751;51.380;10.326;2024-02-23T09:51:15;5.30;89.90
59881;DHT22;45751;51.380;10.326;2024-02-23T09:53:41;5.30;90.10
59881;DHT22;45751;51.380;10.326;2024-02-23T09:56:10;5.40;90.00
59881;DHT22;45751;51.380;10.326;2024-02-23T09:58:37;5.40;88.50
59881;DHT22;45751;51.380;10.326;2024-02-23T10:01:04;5.40;88.50
59881;DHT22;45751;51.380;10.326;2024-02-23T10:03:30;5.40;88.50
59881;DHT22;45751;51.380;10.326;2024-02-23T10:05:57;5.40;89.20
59881;DHT22;45751;51.380;10.326;2024-02-23T10:08:23;5.40;89.60
59881;DHT22;45751;51.380;10.326;2024-02-23T10:10:49;5.50;89.00
59881;DHT22;45751;51.380;10.326;2024-02-23T10:13:19;5.50;88.50
59881;DHT22;45751;51.380;10.326;2024-02-23T10:15:53;5.50;88.50
59881;DHT22;45751;51.380;10.326;2024-02-23T10:18:19;5.60;88.10
59881;DHT22;45751;51.380;10.326;2024-02-23T10:20:46;5.60;87.80
59881;DHT22;45751;51.380;10.326;2024-02-23T10:23:12;5.70;87.20
59881;DHT22;45751;51.380;10.326;2024-02-23T10:25:38;5.70;87.20
59881;DHT22;45751;51.380;10.326;2024-02-23T10:28:06;5.70;87.40
59881;DHT22;45751;51.380;10.326;2024-02-23T10:30:32;5.70;87.50
59881;DHT22;45751;51.380;10.326;2024-02-23T10:32:59;5.80;88.10
59881;DHT22;45751;51.380;10.326;2024-02-23T10:35:25;5.80;87.30
59881;DHT22;45751;51.380;10.326;2024-02-23T10:37:53;5.80;86.30
59881;DHT22;45751;51.380;10.326;2024-02-23T10:40:20;5.90;87.00
59881;DHT22;45751;51.380;10.326;2024-02-23T10:42:48;5.80;87.30
59881;DHT22;45751;51.380;10.326;2024-02-23T10:45:20;5.80;87.60
59881;DHT22;45751;51.380;10.326;2024-02-23T10:47:53;5.80;87.90
59881;DHT22;45751;51.380;10.326;2024-02-23T10:50:20;5.90;87.90
59881;DHT22;45751;51.380;10.326;2024-02-23T10:52:47;5.90;86.90
59881;DHT22;45751;51.380;10.326;2024-02-23T10:55:14;5.90;86.60
59881;DHT22;45751;51.380;10.326;2024-02-23T10:57:40;5.90;85.70
59881;DHT22;45751;51.380;10.326;2024-02-23T11:00:08;5.90;86.30
59881;DHT22;45751;51.380;10.326;2024-02-23T11:02:43;6.00;86.90
59881;DHT22;45751;51.380;10.326;2024-02-23T11:05:11;6.00;86.40
59881;DHT22;45751;51.380;10.326;2024-02-23T11:07:38;6.00;86.80
59881;DHT22;45751;51.380;10.326;2024-02-23T11:10:05;6.00;86.60
59881;DHT22;45751;51.380;10.326;2024-02-23T11:12:31;6.00;86.50
59881;DHT22;45751;51.380;10.326;2024-02-23T11:15:01;6.00;86.90
59881;DHT22;45751;51.380;10.326;2024-02-23T11:17:30;6.00;86.00
59881;DHT22;45751;51.380;10.326;2024-02-23T11:19:56;6.10;86.20
59881;DHT22;45751;51.380;10.326;2024-02-23T11:24:52;6.00;86.20
59881;DHT22;45751;51.380;10.326;2024-02-23T11:27:17;6.00;86.50
59881;DHT22;45751;51.380;10.326;2024-02-23T11:29:45;6.00;86.20
59881;DHT22;45751;51.380;10.326;2024-02-23T11:32:16;6.00;85.20
59881;DHT22;45751;51.380;10.326;2024-02-23T11:34:54;6.00;85.10
59881;DHT22;45751;51.380;10.326;2024-02-23T11:37:21;6.00;85.70
59881;DHT22;45751;51.380;10.326;2024-02-23T11:39:48;6.00;85.10
59881;DHT22;45751;51.380;10.326;2024-02-23T11:42:14;6.00;85.60
59881;DHT22;45751;51.380;10.326;2024-02-23T11:44:40;6.00;85.80
59881;DHT22;45751;51.380;10.326;2024-02-23T11:47:07;6.00;85.10
59881;DHT22;45751;51.380;10.326;2024-02-23T11:49:33;6.10;85.10
59881;DHT22;45751;51.380;10.326;2024-02-23T11:51:59;6.00;85.80
59881;DHT22;45751;51.380;10.326;2024-02-23T11:54:25;6.00;86.60
59881;DHT22;45751;51.380;10.326;2024-02-23T11:56:51;6.00;85.70
59881;DHT22;45751;51.380;10.326;2024-02-23T11:59:20;6.00;85.70
59881;DHT22;45751;51.380;10.326;2024-02-23T12:01:46;6.10;85.10
59881;DHT22;45751;51.380;10.326;2024-02-23T12:04:14;6.10;83.40
59881;DHT22;45751;51.380;10.326;2024-02-23T12:06:40;6.10;82.60
59881;DHT22;45751;51.380;10.326;2024-02-23T12:09:07;6.20;81.40
59881;DHT22;45751;51.380;10.326;2024-02-23T12:11:34;6.20;81.90
59881;DHT22;45751;51.380;10.326;2024-02-23T12:14:00;6.20;81.20
59881;DHT22;45751;51.380;10.326;2024-02-23T12:16:28;6.20;80.10
59881;DHT22;45751;51.380;10.326;2024-02-23T12:18:54;6.20;77.80
59881;DHT22;45751;51.380;10.326;2024-02-23T12:21:24;6.30;77.70
59881;DHT22;45751;51.380;10.326;2024-02-23T12:23:50;6.30;78.00
59881;DHT22;45751;51.380;10.326;2024-02-23T12:26:17;6.30;77.00
59881;DHT22;45751;51.380;10.326;2024-02-23T12:28:44;6.30;76.50
59881;DHT22;45751;51.380;10.326;2024-02-23T12:31:10;6.30;77.50
59881;DHT22;45751;51.380;10.326;2024-02-23T12:33:37;6.40;77.90
59881;DHT22;45751;51.380;10.326;2024-02-23T12:36:04;6.30;78.90
59881;DHT22;45751;51.380;10.326;2024-02-23T12:38:30;6.40;77.90
59881;DHT22;45751;51.380;10.326;2024-02-23T12:40:56;6.40;79.00
59881;DHT22;45751;51.380;10.326;2024-02-23T12:43:22;6.40;79.90
59881;DHT22;45751;51.380;10.326;2024-02-23T12:45:51;6.50;79.00
59881;DHT22;45751;51.380;10.326;2024-02-23T12:48:17;6.50;78.50
59881;DHT22;45751;51.380;10.326;2024-02-23T12:50:43;6.60;79.60
59881;DHT22;45751;51.380;10.326;2024-02-23T12:53:40;6.60;77.60
59881;DHT22;45751;51.380;10.326;2024-02-23T12:56:11;6.60;78.20
59881;DHT22;45751;51.380;10.326;2024-02-23T12:58:38;6.70;77.70
59881;DHT22;45751;51.380;10.326;2024-02-23T13:01:05;6.70;75.50
59881;DHT22;45751;51.380;10.326;2024-02-23T13:03:36;6.80;75.20
59881;DHT22;45751;51.380;10.326;2024-02-23T13:06:03;6.70;75.70
59881;DHT22;45751;51.380;10.326;2024-02-23T13:08:29;6.80;73.60
59881;DHT22;45751;51.380;10.326;2024-02-23T13:10:56;6.80;73.70
59881;DHT22;45751;51.380;10.326;2024-02-23T13:13:23;6.80;73.70
59881;DHT22;45751;51.380;10.326;2024-02-23T13:15:50;6.70;73.70
59881;DHT22;45751;51.380;10.326;2024-02-23T13:18:17;6.80;73.90
59881;DHT22;45751;51.380;10.326;2024-02-23T13:20:43;6.80;73.90
59881;DHT22;45751;51.380;10.326;2024-02-23T13:23:09;6.80;73.30
59881;DHT22;45751;51.380;10.326;2024-02-23T13:25:40;6.90;74.00
59881;DHT22;45751;51.380;10.326;2024-02-23T13:28:07;6.80;72.70
59881;DHT22;45751;51.380;10.326;2024-02-23T13:30:33;6.90;71.90
59881;DHT22;45751;51.380;10.326;2024-02-23T13:33:00;6.90;72.20
59881;DHT22;45751;51.380;10.326;2024-02-23T13:35:26;6.90;72.80
59881;DHT22;45751;51.380;10.326;2024-02-23T13:37:52;6.80;72.90
59881;DHT22;45751;51.380;10.326;2024-02-23T13:40:18;6.90;73.00
59881;DHT22;45751;51.380;10.326;2024-02-23T13:42:44;6.90;73.20
59881;DHT22;45751;51.380;10.326;2024-02-23T13:45:16;6.90;72.70
59881;DHT22;45751;51.380;10.326;2024-02-23T13:47:42;6.90;72.30
59881;DHT22;45751;51.380;10.326;2024-02-23T13:50:10;6.90;73.10
59881;DHT22;45751;51.380;10.326;2024-02-23T13:52:37;7.10;73.90
59881;DHT22;45751;51.380;10.326;2024-02-23T13:55:03;6.90;74.20
59881;DHT22;45751;51.380;10.326;2024-02-23T13:57:29;7.00;73.40
59881;DHT22;45751;51.380;10.326;2024-02-23T13:59:54;6.90;73.00
59881;DHT22;45751;51.380;10.326;2024-02-23T14:02:26;6.90;72.90
59881;DHT22;45751;51.380;10.326;2024-02-23T14:05:00;6.90;72.90
59881;DHT22;45751;51.380;10.326;2024-02-23T14:07:27;6.90;73.30
59881;DHT22;45751;51.380;10.326;2024-02-23T14:09:52;6.90;73.60
59881;DHT22;45751;51.380;10.326;2024-02-23T14:12:18;6.90;73.20
59881;DHT22;45751;51.380;10.326;2024-02-23T14:14:44;7.00;75.20
59881;DHT22;45751;51.380;10.326;2024-02-23T14:17:10;7.10;74.30
59881;DHT22;45751;51.380;10.326;2024-02-23T14:19:36;7.20;73.40
59881;DHT22;45751;51.380;10.326;2024-02-23T14:22:01;7.20;72.10
59881;DHT22;45751;51.380;10.326;2024-02-23T14:24:27;7.20;72.20
59881;DHT22;45751;51.380;10.326;2024-02-23T14:26:53;7.20;73.30
59881;DHT22;45751;51.380;10.326;2024-02-23T14:29:19;7.40;73.20
59881;DHT22;45751;51.380;10.326;2024-02-23T14:31:44;7.50;73.00
59881;DHT22;45751;51.380;10.326;2024-02-23T14:34:10;7.50;72.30
59881;DHT22;45751;51.380;10.326;2024-02-23T14:36:36;7.70;70.80
59881;DHT22;45751;51.380;10.326;2024-02-23T14:39:02;7.80;69.90
59881;DHT22;45751;51.380;10.326;2024-02-23T14:41:30;7.90;69.30
59881;DHT22;45751;51.380;10.326;2024-02-23T14:43:55;8.00;68.70
59881;DHT22;45751;51.380;10.326;2024-02-23T14:46:21;8.10;67.80
59881;DHT22;45751;51.380;10.326;2024-02-23T14:48:47;8.10;66.40
59881;DHT22;45751;51.380;10.326;2024-02-23T14:51:17;8.30;65.00
59881;DHT22;45751;51.380;10.326;2024-02-23T14:53:42;8.30;64.60
59881;DHT22;45751;51.380;10.326;2024-02-23T14:56:08;8.40;64.00
59881;DHT22;45751;51.380;10.326;2024-02-23T14:58:34;8.50;64.90
59881;DHT22;45751;51.380;10.326;2024-02-23T15:01:00;8.40;62.70
59881;DHT22;45751;51.380;10.326;2024-02-23T15:03:26;8.50;62.90
59881;DHT22;45751;51.380;10.326;2024-02-23T15:05:52;8.40;62.80
59881;DHT22;45751;51.380;10.326;2024-02-23T15:08:17;8.40;63.40
59881;DHT22;45751;51.380;10.326;2024-02-23T15:10:43;8.40;63.80
59881;DHT22;45751;51.380;10.326;2024-02-23T15:13:09;8.40;63.00
59881;DHT22;45751;51.380;10.326;2024-02-23T15:15:35;8.40;62.70
59881;DHT22;45751;51.380;10.326;2024-02-23T15:18:05;8.40;62.70
59881;DHT22;45751;51.380;10.326;2024-02-23T15:20:31;8.50;62.90
59881;DHT22;45751;51.380;10.326;2024-02-23T15:22:57;8.50;62.80
59881;DHT22;45751;51.380;10.326;2024-02-23T15:25:23;8.40;62.60
59881;DHT22;45751;51.380;10.326;2024-02-23T15:27:49;8.60;62.10